createdAt,value
2018-07-20T00:01:33.714Z,82.20
2018-07-20T00:04:02.330Z,82.00
2018-07-20T00:06:31.222Z,82.00
2018-07-20T00:08:59.927Z,82.10
2018-07-20T00:11:28.422Z,82.60
2018-07-20T00:13:56.999Z,82.60
2018-07-20T00:16:25.457Z,82.50
2018-07-20T00:21:22.280Z,83.40
2018-07-20T00:23:51.119Z,83.20
2018-07-20T00:26:19.582Z,83.00
2018-07-20T00:28:48.087Z,82.50
2018-07-20T00:31:16.563Z,82.10
2018-07-20T00:33:45.514Z,82.20
2018-07-20T00:36:14.091Z,82.30
2018-07-20T00:38:42.613Z,82.80
2018-07-20T00:41:11.118Z,83.70
2018-07-20T00:43:39.595Z,83.60
2018-07-20T00:46:08.210Z,83.90
2018-07-20T00:48:36.744Z,84.30
2018-07-20T00:51:05.410Z,84.10
2018-07-20T00:53:33.917Z,83.80
2018-07-20T00:56:02.480Z,84.10
2018-07-20T00:58:31.070Z,84.20
2018-07-20T01:00:59.580Z,84.70
2018-07-20T01:03:28.093Z,84.30
2018-07-20T01:05:56.631Z,84.70
2018-07-20T01:08:25.141Z,83.90
2018-07-20T01:10:53.688Z,83.70
2018-07-20T01:13:22.154Z,84.20
2018-07-20T01:15:50.678Z,84.60
2018-07-20T01:18:19.166Z,85.00
2018-07-20T01:20:47.642Z,83.50
2018-07-20T01:23:16.300Z,81.90
2018-07-20T01:25:44.922Z,81.60
2018-07-20T01:28:13.582Z,82.20
2018-07-20T01:30:42.096Z,81.80
2018-07-20T01:33:10.589Z,81.70
2018-07-20T01:35:39.088Z,81.70
2018-07-20T01:38:07.815Z,81.50
2018-07-20T01:40:36.339Z,82.20
2018-07-20T01:43:04.837Z,83.60
2018-07-20T01:45:33.331Z,83.70
2018-07-20T01:48:01.803Z,84.00
2018-07-20T01:50:30.389Z,84.20
2018-07-20T01:52:58.851Z,84.20
2018-07-20T01:55:27.470Z,84.20
2018-07-20T01:57:56.039Z,84.00
2018-07-20T02:00:24.643Z,83.90
2018-07-20T02:02:53.168Z,84.10
2018-07-20T02:05:21.715Z,84.10
2018-07-20T02:07:50.268Z,84.30
2018-07-20T02:10:18.748Z,84.50
2018-07-20T02:12:47.257Z,84.40
2018-07-20T02:15:15.721Z,84.10
2018-07-20T02:17:44.122Z,84.20
2018-07-20T02:20:12.669Z,84.40
2018-07-20T02:22:41.214Z,84.60
2018-07-20T02:25:09.690Z,85.20
2018-07-20T02:27:38.172Z,84.60
2018-07-20T02:30:07.390Z,84.40
2018-07-20T02:32:35.979Z,84.30
2018-07-20T02:35:04.670Z,84.80
2018-07-20T02:37:33.243Z,84.40
2018-07-20T02:40:01.752Z,84.40
2018-07-20T02:42:30.515Z,84.00
2018-07-20T02:44:59.125Z,83.80
2018-07-20T02:47:27.568Z,83.60
2018-07-20T02:52:24.238Z,84.70
2018-07-20T02:54:52.760Z,84.40
2018-07-20T02:57:21.248Z,84.30
2018-07-20T02:59:49.717Z,84.70
2018-07-20T03:02:18.294Z,85.20
2018-07-20T03:04:46.872Z,85.30
2018-07-20T03:07:15.357Z,85.70
2018-07-20T03:09:43.828Z,85.80
2018-07-20T03:12:12.280Z,85.70
2018-07-20T03:14:40.797Z,86.00
2018-07-20T03:17:09.285Z,86.10
2018-07-20T03:19:37.927Z,86.50
2018-07-20T03:22:06.423Z,86.50
2018-07-20T03:24:37.464Z,87.00
2018-07-20T03:27:06.243Z,87.00
2018-07-20T03:29:34.788Z,87.30
2018-07-20T03:32:03.287Z,87.40
2018-07-20T03:34:31.755Z,88.20
2018-07-20T03:37:00.293Z,88.50
2018-07-20T03:39:28.801Z,88.50
2018-07-20T03:41:57.285Z,88.80
2018-07-20T03:44:25.725Z,88.70
2018-07-20T03:49:22.473Z,88.90
2018-07-20T03:51:50.984Z,90.00
2018-07-20T03:54:19.558Z,90.00
2018-07-20T03:56:48.159Z,90.50
2018-07-20T03:59:16.658Z,90.40
2018-07-20T04:01:45.692Z,90.60
2018-07-20T04:04:14.140Z,90.50
2018-07-20T04:06:42.679Z,90.50
2018-07-20T04:09:11.557Z,90.40
2018-07-20T04:11:40.431Z,90.30
2018-07-20T04:14:08.890Z,90.60
2018-07-20T04:16:37.802Z,90.80
2018-07-20T04:19:06.528Z,90.80
2018-07-20T04:21:35.178Z,90.70
2018-07-20T04:24:03.662Z,90.60
2018-07-20T04:32:34.108Z,91.20
2018-07-20T04:35:02.616Z,91.40
2018-07-20T04:37:31.190Z,91.50
2018-07-20T04:39:59.669Z,91.10
2018-07-20T04:42:28.320Z,91.20
2018-07-20T04:44:56.798Z,91.30
2018-07-20T04:47:25.257Z,91.30
2018-07-20T04:49:53.774Z,91.80
2018-07-20T04:52:22.405Z,92.20
2018-07-20T04:54:51.001Z,92.40
2018-07-20T04:57:19.484Z,92.80
2018-07-20T04:59:47.939Z,93.10
2018-07-20T05:04:45.660Z,93.50
2018-07-20T05:07:14.185Z,93.90
2018-07-20T05:09:42.682Z,93.50
2018-07-20T05:12:11.185Z,93.80
2018-07-20T05:14:40.250Z,93.30
2018-07-20T05:17:08.740Z,93.80
2018-07-20T05:19:37.393Z,93.70
2018-07-20T05:22:06.382Z,93.70
2018-07-20T05:24:34.964Z,94.10
2018-07-20T05:27:03.417Z,94.80
2018-07-20T05:29:31.875Z,94.70
2018-07-20T05:32:00.434Z,95.10
2018-07-20T05:34:28.907Z,95.20
2018-07-20T05:36:57.507Z,94.80
2018-07-20T05:39:26.092Z,95.50
2018-07-20T05:41:54.592Z,95.20
2018-07-20T05:44:23.268Z,95.60
2018-07-20T05:46:51.702Z,95.60
2018-07-20T05:49:20.156Z,95.10
2018-07-20T05:51:48.650Z,95.40
2018-07-20T05:54:17.120Z,95.20
2018-07-20T05:56:45.687Z,95.60
2018-07-20T05:59:14.207Z,95.50
2018-07-20T06:01:42.683Z,95.40
2018-07-20T06:04:11.283Z,95.40
2018-07-20T06:06:39.720Z,95.50
2018-07-20T06:09:10.386Z,95.30
2018-07-20T06:11:38.903Z,94.80
2018-07-20T06:14:07.702Z,95.40
2018-07-20T06:16:36.190Z,95.50
2018-07-20T06:19:04.864Z,95.10
2018-07-20T06:21:33.317Z,95.30
2018-07-20T06:24:01.841Z,95.60
2018-07-20T06:26:30.452Z,95.40
2018-07-20T06:28:58.970Z,94.50
2018-07-20T06:31:27.571Z,93.40
2018-07-20T06:33:56.059Z,93.40
2018-07-20T06:36:24.637Z,93.60
2018-07-20T06:38:53.229Z,92.60
2018-07-20T06:41:21.875Z,92.10
2018-07-20T06:43:50.501Z,91.70
2018-07-20T06:46:19.089Z,91.90
2018-07-20T06:48:47.564Z,90.00
2018-07-20T06:56:12.390Z,90.40
2018-07-20T07:01:09.090Z,91.00
2018-07-20T07:03:37.624Z,91.00
2018-07-20T07:06:06.116Z,91.60
2018-07-20T07:08:34.571Z,88.40
2018-07-20T07:11:03.069Z,89.30
2018-07-20T07:13:31.570Z,90.30
2018-07-20T07:16:00.274Z,89.60
2018-07-20T07:18:28.718Z,88.70
2018-07-20T07:20:57.230Z,88.00
2018-07-20T07:23:25.702Z,87.20
2018-07-20T07:25:54.241Z,87.10
2018-07-20T07:30:50.856Z,87.80
2018-07-20T07:33:19.391Z,86.40
2018-07-20T07:35:47.913Z,86.10
2018-07-20T07:43:12.703Z,83.60
2018-07-20T07:45:41.317Z,85.70
2018-07-20T07:48:09.767Z,85.40
2018-07-20T07:50:38.255Z,85.70
2018-07-20T07:55:35.001Z,84.30
2018-07-20T07:58:03.652Z,84.40
2018-07-20T08:00:32.230Z,85.30
2018-07-20T08:03:00.825Z,84.50
2018-07-20T08:05:29.271Z,83.80
2018-07-20T08:07:57.789Z,82.40
2018-07-20T08:10:26.366Z,83.40
2018-07-20T08:12:54.949Z,84.00
2018-07-20T08:17:51.630Z,82.20
2018-07-20T08:20:20.136Z,82.00
2018-07-20T08:22:48.710Z,81.70
2018-07-20T08:25:17.210Z,80.40
2018-07-20T08:27:46.320Z,81.70
2018-07-20T08:30:14.878Z,80.70
2018-07-20T08:32:43.387Z,79.90
2018-07-20T08:35:11.896Z,77.20
2018-07-20T08:37:40.472Z,78.50
2018-07-20T08:40:09.068Z,77.90
2018-07-20T08:42:37.570Z,76.10
2018-07-20T08:45:06.838Z,76.40
2018-07-20T08:47:35.300Z,77.60
2018-07-20T08:50:03.906Z,76.80
2018-07-20T08:52:32.378Z,75.60
2018-07-20T08:55:00.860Z,75.70
2018-07-20T08:57:29.461Z,74.40
2018-07-20T08:59:58.009Z,74.80
2018-07-20T09:02:26.497Z,75.10
2018-07-20T09:04:54.994Z,73.70
2018-07-20T09:07:23.494Z,72.40
2018-07-20T09:09:51.973Z,73.70
2018-07-20T09:12:20.664Z,71.40
2018-07-20T09:14:49.155Z,71.40
2018-07-20T09:17:17.644Z,72.70
2018-07-20T09:19:46.294Z,72.20
2018-07-20T09:22:14.789Z,70.70
2018-07-20T09:24:43.636Z,70.40
2018-07-20T09:27:12.070Z,70.00
2018-07-20T09:29:40.562Z,69.20
2018-07-20T09:32:09.036Z,70.70
2018-07-20T09:37:05.989Z,71.20
2018-07-20T09:39:34.472Z,69.50
2018-07-20T09:42:02.977Z,68.10
2018-07-20T09:44:31.552Z,68.00
2018-07-20T09:46:59.952Z,68.60
2018-07-20T09:49:28.442Z,70.90
2018-07-20T09:54:25.111Z,68.70
2018-07-20T09:56:53.556Z,68.60
2018-07-20T10:01:50.278Z,67.20
2018-07-20T10:04:18.862Z,62.80
2018-07-20T10:06:47.360Z,65.80
2018-07-20T10:09:15.846Z,61.70
2018-07-20T10:11:44.426Z,62.50
2018-07-20T10:14:12.848Z,63.20
2018-07-20T10:16:41.392Z,61.60
2018-07-20T10:19:09.870Z,60.70
2018-07-20T10:24:07.116Z,64.70
2018-07-20T10:26:35.692Z,63.70
2018-07-20T10:29:04.191Z,62.90
2018-07-20T10:31:32.689Z,61.30
2018-07-20T10:34:01.304Z,63.40
2018-07-20T10:36:29.774Z,64.50
2018-07-20T10:38:58.358Z,61.20
2018-07-20T10:41:27.057Z,61.00
2018-07-20T10:46:23.816Z,63.80
2018-07-20T10:48:52.327Z,60.90
2018-07-20T10:51:20.854Z,61.30
2018-07-20T10:53:50.204Z,57.80
2018-07-20T10:56:18.729Z,60.00
2018-07-20T10:58:47.229Z,58.40
2018-07-20T11:01:15.766Z,58.40
2018-07-20T11:03:44.335Z,58.90
2018-07-20T11:06:12.856Z,59.80
2018-07-20T11:08:41.330Z,58.00
2018-07-20T11:11:10.336Z,59.70
2018-07-20T11:13:38.905Z,57.30
2018-07-20T11:16:07.745Z,59.80
2018-07-20T11:18:36.297Z,58.70
2018-07-20T11:21:05.502Z,57.80
2018-07-20T11:23:33.984Z,57.70
2018-07-20T11:26:02.508Z,55.00
2018-07-20T11:28:30.992Z,56.10
2018-07-20T11:30:59.462Z,57.40
2018-07-20T11:33:28.028Z,57.30
2018-07-20T11:35:56.534Z,56.90
2018-07-20T11:38:25.041Z,56.30
2018-07-20T11:40:53.576Z,55.00
2018-07-20T11:43:22.134Z,55.00
2018-07-20T11:45:50.623Z,55.10
2018-07-20T11:50:47.315Z,54.30
2018-07-20T11:53:15.870Z,54.80
2018-07-20T11:55:44.463Z,57.10
2018-07-20T11:58:13.069Z,52.90
2018-07-20T12:03:09.882Z,52.10
2018-07-20T12:05:38.383Z,55.70
2018-07-20T12:08:06.896Z,56.30
2018-07-20T12:10:35.373Z,55.60
2018-07-20T12:15:32.059Z,53.20
2018-07-20T12:20:28.785Z,53.30
2018-07-20T12:22:57.274Z,52.50
2018-07-20T12:25:25.816Z,53.60
2018-07-20T12:27:54.640Z,51.90
2018-07-20T12:30:23.106Z,54.70
2018-07-20T12:32:51.608Z,55.30
2018-07-20T12:35:20.300Z,51.50
2018-07-20T12:37:48.802Z,53.60
2018-07-20T12:40:17.300Z,53.30
2018-07-20T12:45:13.986Z,54.40
2018-07-20T12:50:11.047Z,55.00
2018-07-20T12:52:39.514Z,54.40
2018-07-20T12:55:08.033Z,54.00
2018-07-20T12:57:36.572Z,52.00
2018-07-20T13:00:05.449Z,51.60
2018-07-20T13:02:34.008Z,50.90
2018-07-20T13:05:02.488Z,52.20
2018-07-20T13:09:59.240Z,53.40
2018-07-20T13:17:24.321Z,50.90
2018-07-20T13:19:53.049Z,52.30
2018-07-20T13:22:21.518Z,53.50
2018-07-20T13:24:50.043Z,53.20
2018-07-20T13:27:19.168Z,52.20
2018-07-20T13:29:47.656Z,50.30
2018-07-20T13:32:16.221Z,53.30
2018-07-20T13:37:13.004Z,53.20
2018-07-20T13:39:42.475Z,53.70
2018-07-20T13:42:11.027Z,52.50
2018-07-20T13:44:39.611Z,53.00
2018-07-20T13:47:08.151Z,54.40
2018-07-20T13:49:36.665Z,54.80
2018-07-20T13:54:33.378Z,56.10
2018-07-20T13:57:01.916Z,53.20
2018-07-20T13:59:30.474Z,55.20
2018-07-20T14:01:59.097Z,53.90
2018-07-20T14:04:27.608Z,52.90
2018-07-20T14:06:56.322Z,53.60
2018-07-20T14:09:24.800Z,54.10
2018-07-20T14:11:53.384Z,53.90
2018-07-20T14:14:21.947Z,52.60
2018-07-20T14:16:50.517Z,52.60
2018-07-20T14:19:19.036Z,54.20
2018-07-20T14:21:47.613Z,54.30
2018-07-20T14:24:16.198Z,53.60
2018-07-20T14:26:44.724Z,53.40
2018-07-20T14:29:13.278Z,53.40
2018-07-20T14:31:41.860Z,53.30
2018-07-20T14:34:10.449Z,55.00
2018-07-20T14:36:39.004Z,54.50
2018-07-20T14:39:10.092Z,55.80
2018-07-20T14:41:38.644Z,55.30
2018-07-20T14:44:07.241Z,55.00
2018-07-20T14:46:35.744Z,54.20
2018-07-20T14:49:04.257Z,53.70
2018-07-20T14:51:32.784Z,53.40
2018-07-20T14:54:01.666Z,54.80
2018-07-20T14:56:30.153Z,53.90
2018-07-20T14:58:58.695Z,52.40
2018-07-20T15:01:27.221Z,52.90
2018-07-20T15:03:56.367Z,53.30
2018-07-20T15:06:24.961Z,54.60
2018-07-20T15:08:53.531Z,55.30
2018-07-20T15:11:22.032Z,55.00
2018-07-20T15:13:50.580Z,55.40
2018-07-20T15:16:19.128Z,55.40
2018-07-20T15:18:47.664Z,57.20
2018-07-20T15:21:16.164Z,55.90
2018-07-20T15:28:41.060Z,56.10
2018-07-20T15:31:09.599Z,54.90
2018-07-20T15:33:38.099Z,55.20
2018-07-20T15:36:06.606Z,54.90
2018-07-20T15:38:35.172Z,55.20
2018-07-20T15:41:03.738Z,56.20
2018-07-20T15:43:32.325Z,56.40
2018-07-20T15:46:06.042Z,55.40
2018-07-20T15:48:29.882Z,56.50
2018-07-20T15:50:58.399Z,53.50
2018-07-20T15:53:41.934Z,55.90
2018-07-20T15:55:56.101Z,55.40
2018-07-20T15:58:24.575Z,55.30
2018-07-20T16:00:53.113Z,55.20
2018-07-20T16:03:21.605Z,54.40
2018-07-20T16:05:50.274Z,55.70
2018-07-20T16:08:18.795Z,56.30
2018-07-20T16:10:47.291Z,54.90
2018-07-20T16:15:44.178Z,55.80
2018-07-20T16:18:12.699Z,56.50
2018-07-20T16:20:41.199Z,55.90
2018-07-20T16:23:10.055Z,56.90
2018-07-20T16:25:38.692Z,57.40
2018-07-20T16:28:07.161Z,58.50
2018-07-20T16:30:35.717Z,58.70
2018-07-20T16:33:04.252Z,57.80
2018-07-20T16:35:32.735Z,57.80
2018-07-20T16:38:01.275Z,57.80
2018-07-20T16:40:29.787Z,57.30
2018-07-20T16:42:58.303Z,57.20
2018-07-20T16:45:26.824Z,57.80
2018-07-20T16:47:55.402Z,58.70
2018-07-20T16:50:23.963Z,57.10
2018-07-20T16:52:58.876Z,57.30
2018-07-20T16:55:27.426Z,58.60
2018-07-20T16:57:56.118Z,59.40
2018-07-20T17:00:24.574Z,60.90
2018-07-20T17:02:53.080Z,59.80
2018-07-20T17:05:21.594Z,59.80
2018-07-20T17:07:50.085Z,60.40
2018-07-20T17:10:18.601Z,60.40
2018-07-20T17:15:15.432Z,62.10
2018-07-20T17:17:43.894Z,61.40
2018-07-20T17:20:12.547Z,61.50
2018-07-20T17:25:09.972Z,61.40
2018-07-20T17:27:38.651Z,61.70
2018-07-20T17:30:07.180Z,61.80
2018-07-20T17:32:35.665Z,62.00
2018-07-20T17:35:04.225Z,62.00
2018-07-20T17:37:32.840Z,63.50
2018-07-20T17:40:01.334Z,63.10
2018-07-20T17:42:29.867Z,64.50
2018-07-20T17:47:26.542Z,63.40
2018-07-20T17:49:55.067Z,62.10
2018-07-20T17:52:23.577Z,65.00
2018-07-20T17:54:52.221Z,64.10
2018-07-20T17:57:20.784Z,65.70
2018-07-20T18:02:17.572Z,65.40
2018-07-20T18:04:46.117Z,65.00
2018-07-20T18:07:14.943Z,66.20
2018-07-20T18:09:43.720Z,66.30
2018-07-20T18:12:12.231Z,66.80
2018-07-20T18:14:40.797Z,67.40
2018-07-20T18:17:09.313Z,67.80
2018-07-20T18:19:37.887Z,67.20
2018-07-20T18:22:06.541Z,66.50
2018-07-20T18:27:03.545Z,68.10
2018-07-20T18:29:32.103Z,67.80
2018-07-20T18:32:00.720Z,67.80
2018-07-20T18:34:29.411Z,68.40
2018-07-20T18:36:58.412Z,69.30
2018-07-20T18:39:27.308Z,69.60
2018-07-20T18:41:55.962Z,70.50
2018-07-20T18:44:24.717Z,69.90
2018-07-20T18:46:53.441Z,70.90
2018-07-20T18:51:50.349Z,69.90
2018-07-20T18:54:18.883Z,70.00
2018-07-20T18:56:47.460Z,70.90
2018-07-20T18:59:16.142Z,72.00
2018-07-20T19:01:44.808Z,73.00
2018-07-20T19:04:13.322Z,72.40
2018-07-20T19:06:41.876Z,70.00
2018-07-20T19:09:11.518Z,70.40
2018-07-20T19:11:40.384Z,69.80
2018-07-20T19:14:09.178Z,68.90
2018-07-20T19:16:37.890Z,67.80
2018-07-20T19:19:07.683Z,67.20
2018-07-20T19:21:36.378Z,67.30
2018-07-20T19:24:05.846Z,67.10
2018-07-20T19:26:34.674Z,67.20
2018-07-20T19:29:03.351Z,67.00
2018-07-20T19:31:32.389Z,66.90
2018-07-20T19:34:01.127Z,67.40
2018-07-20T19:38:58.887Z,67.40
2018-07-20T19:41:27.576Z,67.40
2018-07-20T19:43:56.368Z,67.50
2018-07-20T19:46:25.570Z,67.90
2018-07-20T19:48:54.295Z,68.10
2018-07-20T19:51:23.030Z,68.60
2018-07-20T19:53:52.740Z,69.00
2018-07-20T19:56:21.422Z,69.50
2018-07-20T19:58:50.507Z,69.50
2018-07-20T20:01:19.476Z,69.70
2018-07-20T20:03:48.663Z,70.10
2018-07-20T20:06:17.611Z,70.40
2018-07-20T20:08:46.219Z,70.80
2018-07-20T20:11:14.901Z,71.50
2018-07-20T20:13:44.112Z,71.80
2018-07-20T20:16:12.741Z,72.20
2018-07-20T20:21:09.965Z,73.00
2018-07-20T20:23:38.556Z,73.10
2018-07-20T20:26:07.209Z,73.50
2018-07-20T20:28:35.805Z,73.80
2018-07-20T20:31:04.769Z,75.10
2018-07-20T20:33:33.438Z,75.40
2018-07-20T20:36:02.202Z,75.60
2018-07-20T20:38:31.487Z,75.20
2018-07-20T20:41:00.234Z,75.70
2018-07-20T20:43:29.195Z,75.50
2018-07-20T20:45:58.529Z,75.40
2018-07-20T20:48:27.286Z,75.60
2018-07-20T20:50:56.801Z,75.70
2018-07-20T20:53:25.783Z,75.70
2018-07-20T20:55:54.419Z,75.90
2018-07-20T20:58:23.019Z,76.10
2018-07-20T21:00:51.720Z,77.00
2018-07-20T21:03:20.388Z,76.70
2018-07-20T21:05:49.582Z,76.70
2018-07-20T21:08:19.083Z,77.40
2018-07-20T21:10:47.817Z,77.20
2018-07-20T21:13:16.511Z,77.20
2018-07-20T21:18:13.737Z,77.20
2018-07-20T21:20:42.304Z,77.30
2018-07-20T21:23:10.906Z,77.50
2018-07-20T21:25:39.568Z,77.40
2018-07-20T21:28:08.640Z,77.60
2018-07-20T21:30:37.165Z,77.60
2018-07-20T21:33:05.678Z,78.10
2018-07-20T21:35:34.236Z,78.40
2018-07-20T21:38:02.764Z,78.30
2018-07-20T21:40:31.518Z,79.10
2018-07-20T21:43:00.135Z,79.50
2018-07-20T21:45:28.735Z,78.70
2018-07-20T21:47:57.279Z,79.10
2018-07-20T21:50:25.796Z,79.10
2018-07-20T21:52:54.463Z,79.40
2018-07-20T21:55:23.059Z,79.70
2018-07-20T21:57:51.580Z,79.10
2018-07-20T22:00:20.223Z,79.30
2018-07-20T22:02:49.629Z,79.80
2018-07-20T22:05:18.206Z,79.50
2018-07-20T22:07:46.906Z,79.50
2018-07-20T22:10:15.419Z,80.00
2018-07-20T22:12:44.009Z,79.80
2018-07-20T22:15:12.521Z,79.70
2018-07-20T22:17:41.105Z,79.80
2018-07-20T22:20:10.767Z,79.80
2018-07-20T22:22:39.341Z,80.00
2018-07-20T22:25:08.160Z,80.00
2018-07-20T22:27:37.357Z,80.80
2018-07-20T22:30:08.732Z,80.10
2018-07-20T22:32:37.242Z,80.10
2018-07-20T22:35:07.420Z,80.40
2018-07-20T22:37:36.008Z,81.00
2018-07-20T22:40:04.972Z,80.80
2018-07-20T22:42:33.522Z,81.00
2018-07-20T22:45:02.051Z,81.30
2018-07-20T22:52:26.998Z,81.80
2018-07-20T22:57:23.809Z,81.90
2018-07-20T22:59:52.371Z,81.90
2018-07-20T23:02:20.877Z,82.00
2018-07-20T23:04:49.444Z,82.30
2018-07-20T23:07:17.928Z,82.50
2018-07-20T23:09:46.461Z,82.30
2018-07-20T23:12:14.987Z,82.50
2018-07-20T23:14:43.460Z,82.50
2018-07-20T23:19:40.125Z,82.40
2018-07-20T23:22:08.618Z,82.40
2018-07-20T23:24:37.069Z,82.30
2018-07-20T23:27:05.872Z,82.40
2018-07-20T23:29:34.423Z,82.50
2018-07-20T23:32:02.879Z,82.70
2018-07-20T23:34:31.351Z,82.90
2018-07-20T23:39:28.038Z,83.80
2018-07-20T23:41:56.588Z,83.80
2018-07-20T23:44:25.054Z,84.10
2018-07-20T23:46:53.598Z,84.30
2018-07-20T23:49:22.069Z,84.40
2018-07-20T23:51:50.596Z,84.20
2018-07-20T23:54:19.230Z,84.40
2018-07-20T23:56:47.709Z,84.50
2018-07-20T23:59:16.178Z,84.80
